createdAt,value
2023-01-13T04:17:16.808Z,98261.75
2023-01-13T04:19:43.836Z,98258.03
2023-01-13T04:22:10.500Z,98273.13
2023-01-13T04:24:37.149Z,98266.34
2023-01-13T04:27:04.308Z,98274.13
2023-01-13T04:29:30.846Z,98264.94
2023-01-13T04:31:57.385Z,98262.03
2023-01-13T04:34:23.857Z,98275.78
2023-01-13T04:36:50.339Z,98257.13
2023-01-13T04:39:16.871Z,98270.94
2023-01-13T04:41:58.509Z,98273.56
2023-01-13T04:44:26.305Z,98262.19
2023-01-13T04:46:53.413Z,98268.09
2023-01-13T04:49:20.120Z,98257.94
2023-01-13T04:51:46.621Z,98269.22
2023-01-13T04:54:13.216Z,98258.63
2023-01-13T04:56:39.784Z,98264.88
2023-01-13T04:59:06.403Z,98265.50
2023-01-13T05:01:33.231Z,98252.56
2023-01-13T05:03:59.775Z,98265.38
2023-01-13T05:06:26.280Z,98248.75
2023-01-13T05:08:53.003Z,98244.59
2023-01-13T05:11:38.132Z,98240.16
2023-01-13T05:14:23.543Z,98243.97
2023-01-13T05:17:00.755Z,98254.06
2023-01-13T05:19:33.041Z,98239.44
2023-01-13T05:22:18.628Z,98229.34
2023-01-13T05:25:03.961Z,98232.00
2023-01-13T05:27:31.461Z,98243.53
2023-01-13T05:29:58.381Z,98226.97
2023-01-13T05:32:27.947Z,98222.38
2023-01-13T05:34:55.744Z,98251.88
2023-01-13T05:37:23.390Z,98253.53
2023-01-13T05:40:08.886Z,98248.91
2023-01-13T05:42:54.357Z,98252.94
2023-01-13T05:45:21.009Z,98236.72
2023-01-13T05:47:47.659Z,98245.47
2023-01-13T05:50:14.228Z,98238.41
2023-01-13T05:52:40.774Z,98220.47
2023-01-13T05:55:07.667Z,98241.25
2023-01-13T05:57:34.197Z,98245.22
2023-01-13T06:00:00.673Z,98233.53
2023-01-13T06:02:27.334Z,98245.66
2023-01-13T06:04:53.845Z,98244.38
2023-01-13T06:07:20.372Z,98250.81
2023-01-13T06:09:46.838Z,98237.50
2023-01-13T06:12:13.890Z,98223.72
2023-01-13T06:14:40.424Z,98239.75
2023-01-13T06:17:12.348Z,98252.94
2023-01-13T06:19:39.231Z,98240.22
2023-01-13T06:22:28.346Z,98249.81
2023-01-13T06:24:54.845Z,98255.88
2023-01-13T06:27:22.967Z,98252.44
2023-01-13T06:29:49.696Z,98223.53
2023-01-13T06:32:20.780Z,98239.31
2023-01-13T06:34:54.704Z,98251.50
2023-01-13T06:37:25.366Z,98243.19
2023-01-13T06:39:58.060Z,98246.50
2023-01-13T06:42:46.821Z,98252.81
2023-01-13T06:45:13.548Z,98262.66
2023-01-13T06:47:40.788Z,98266.16
2023-01-13T06:50:07.585Z,98267.59
2023-01-13T06:52:34.111Z,98269.53
2023-01-13T06:55:00.704Z,98247.53
2023-01-13T06:57:27.181Z,98272.13
2023-01-13T06:59:53.669Z,98274.00
2023-01-13T07:02:20.284Z,98273.69
2023-01-13T07:04:46.937Z,98266.63
2023-01-13T07:07:13.864Z,98287.97
2023-01-13T07:09:40.475Z,98283.38
2023-01-13T07:12:07.310Z,98283.44
2023-01-13T07:14:52.601Z,98294.38
2023-01-13T07:17:25.001Z,98292.00
2023-01-13T07:19:53.047Z,98297.03
2023-01-13T07:22:19.760Z,98291.47
2023-01-13T07:24:46.332Z,98289.66
2023-01-13T07:27:12.942Z,98287.66
2023-01-13T07:29:39.690Z,98279.28
2023-01-13T07:32:07.726Z,98280.19
2023-01-13T07:34:34.185Z,98284.59
2023-01-13T07:37:01.096Z,98271.09
2023-01-13T07:39:27.611Z,98286.47
2023-01-13T07:42:12.787Z,98273.47
2023-01-13T07:44:39.399Z,98279.03
2023-01-13T07:47:06.045Z,98274.16
2023-01-13T07:49:33.167Z,98272.19
2023-01-13T07:51:59.709Z,98267.19
2023-01-13T07:54:39.794Z,98268.66
2023-01-13T07:57:07.204Z,98284.06
2023-01-13T07:59:33.739Z,98264.41
2023-01-13T08:02:00.639Z,98280.25
2023-01-13T08:04:27.278Z,98282.44
2023-01-13T08:06:53.711Z,98301.00
2023-01-13T08:09:20.197Z,98286.09
2023-01-13T08:12:06.717Z,98300.72
2023-01-13T08:14:34.471Z,98273.19
2023-01-13T08:17:00.983Z,98302.63
2023-01-13T08:19:27.490Z,98306.97
2023-01-13T08:21:53.971Z,98304.50
2023-01-13T08:24:20.452Z,98301.56
2023-01-13T08:26:47.042Z,98305.34
2023-01-13T08:29:15.078Z,98297.44
2023-01-13T08:31:42.011Z,98293.41
2023-01-13T08:34:08.802Z,98310.81
2023-01-13T08:36:35.394Z,98281.69
2023-01-13T08:39:01.985Z,98280.72
2023-01-13T08:41:47.494Z,98298.06
2023-01-13T08:44:14.015Z,98290.22
2023-01-13T08:46:41.622Z,98293.41
2023-01-13T08:49:08.107Z,98289.00
2023-01-13T08:51:34.978Z,98277.56
2023-01-13T08:54:02.147Z,98249.53
2023-01-13T08:56:35.200Z,98256.06
2023-01-13T08:59:02.168Z,98269.16
2023-01-13T09:01:28.986Z,98260.38
2023-01-13T09:03:55.832Z,98283.81
2023-01-13T09:06:22.502Z,98281.94
2023-01-13T09:08:49.058Z,98271.66
2023-01-13T09:11:39.516Z,98258.84
2023-01-13T09:14:06.152Z,98254.38
2023-01-13T09:16:32.711Z,98262.59
2023-01-13T09:18:59.311Z,98265.78
2023-01-13T09:21:26.551Z,98260.38
2023-01-13T09:23:53.096Z,98242.47
2023-01-13T09:26:21.184Z,98230.88
2023-01-13T09:28:47.997Z,98222.88
2023-01-13T09:31:14.651Z,98214.00
2023-01-13T09:33:59.873Z,98193.81
2023-01-13T09:36:26.454Z,98199.16
2023-01-13T09:38:53.044Z,98196.94
2023-01-13T09:41:40.681Z,98195.25
2023-01-13T09:44:22.098Z,98216.97
2023-01-13T09:46:56.222Z,98219.50
2023-01-13T09:49:34.502Z,98217.09
2023-01-13T09:52:21.258Z,98211.19
2023-01-13T09:55:01.273Z,98207.56
2023-01-13T09:57:37.220Z,98212.75
2023-01-13T10:00:12.002Z,98221.66
2023-01-13T10:03:03.470Z,98225.97
2023-01-13T10:05:43.463Z,98225.72
2023-01-13T10:08:20.803Z,98225.63
2023-01-13T10:10:55.150Z,98245.72
2023-01-13T10:13:31.661Z,98227.50
2023-01-13T10:16:10.564Z,98216.56
2023-01-13T10:18:55.308Z,98215.94
2023-01-13T10:21:43.401Z,98220.88
2023-01-13T10:24:25.211Z,98223.84
2023-01-13T10:27:24.891Z,98223.94
2023-01-13T10:29:51.415Z,98232.72
2023-01-13T10:32:17.960Z,98238.41
2023-01-13T10:34:51.977Z,98243.41
2023-01-13T10:37:26.395Z,98247.06
2023-01-13T10:40:00.653Z,98240.31
2023-01-13T10:42:27.557Z,98250.06
2023-01-13T10:44:59.114Z,98239.69
2023-01-13T10:47:27.479Z,98253.19
2023-01-13T10:50:08.687Z,98245.13
2023-01-13T10:52:41.366Z,98229.22
2023-01-13T10:55:30.539Z,98241.59
2023-01-13T10:57:57.135Z,98231.34
2023-01-13T11:00:30.535Z,98235.41
2023-01-13T11:03:16.036Z,98239.03
2023-01-13T11:05:51.141Z,98243.72
2023-01-13T11:08:20.221Z,98241.44
2023-01-13T11:10:50.405Z,98250.22
2023-01-13T11:13:16.928Z,98266.94
2023-01-13T11:16:17.477Z,98269.31
2023-01-13T11:19:02.400Z,98280.16
2023-01-13T11:21:39.208Z,98274.47
2023-01-13T11:24:15.402Z,98278.31
2023-01-13T11:26:56.595Z,98284.78
2023-01-13T11:29:39.877Z,98288.50
2023-01-13T11:32:11.479Z,98291.56
2023-01-13T11:34:41.406Z,98291.47
2023-01-13T11:37:20.388Z,98275.38
2023-01-13T11:40:03.792Z,98289.53
2023-01-13T11:42:36.784Z,98295.69
2023-01-13T11:45:12.424Z,98301.97
2023-01-13T11:47:39.138Z,98323.19
2023-01-13T11:50:16.115Z,98326.44
2023-01-13T11:52:45.409Z,98323.28
2023-01-13T11:55:33.385Z,98318.66
2023-01-13T11:58:14.584Z,98302.84
2023-01-13T12:00:58.515Z,98316.59
2023-01-13T12:03:50.169Z,98317.59
2023-01-13T12:06:38.491Z,98318.78
2023-01-13T12:09:14.295Z,98312.47
2023-01-13T12:12:13.580Z,98310.09
2023-01-13T12:14:58.287Z,98318.81
2023-01-13T12:17:37.069Z,98326.56
2023-01-13T12:20:26.374Z,98318.41
2023-01-13T12:22:56.637Z,98328.97
2023-01-13T12:25:31.599Z,98327.28
2023-01-13T12:28:14.183Z,98335.31
2023-01-13T12:30:45.680Z,98327.75
2023-01-13T12:33:47.707Z,98323.41
2023-01-13T12:36:20.213Z,98315.19
2023-01-13T12:38:58.541Z,98321.13
2023-01-13T12:41:38.738Z,98313.38
2023-01-13T12:44:16.945Z,98323.41
2023-01-13T12:46:55.735Z,98309.66
2023-01-13T12:49:31.982Z,98319.09
2023-01-13T12:52:07.806Z,98317.56
2023-01-13T12:54:37.321Z,98321.84
2023-01-13T12:57:19.145Z,98318.84
2023-01-13T13:00:06.058Z,98320.25
2023-01-13T13:02:37.136Z,98301.88
2023-01-13T13:05:16.187Z,98337.19
2023-01-13T13:07:49.504Z,98349.16
2023-01-13T13:10:32.031Z,98338.44
2023-01-13T13:13:19.813Z,98355.97
2023-01-13T13:15:48.767Z,98347.91
2023-01-13T13:18:18.087Z,98353.41
2023-01-13T13:21:09.664Z,98360.72
2023-01-13T13:24:10.366Z,98360.25
2023-01-13T13:26:46.577Z,98363.47
2023-01-13T13:29:30.573Z,98372.91
2023-01-13T13:32:19.827Z,98355.84
2023-01-13T13:35:04.205Z,98388.28
2023-01-13T13:38:22.985Z,98404.09
2023-01-13T13:41:08.467Z,98420.88
2023-01-13T13:44:00.401Z,98435.38
2023-01-13T13:46:47.386Z,98396.00
2023-01-13T13:49:34.088Z,98411.34
2023-01-13T13:52:08.900Z,98406.94
2023-01-13T13:54:35.615Z,98428.25
2023-01-13T13:57:02.149Z,98428.97
2023-01-13T13:59:33.659Z,98445.25
2023-01-13T14:02:03.568Z,98451.16
2023-01-13T14:04:36.759Z,98440.56
2023-01-13T14:07:14.235Z,98453.94
2023-01-13T14:09:45.250Z,98451.66
2023-01-13T14:12:26.057Z,98451.50
2023-01-13T14:14:55.840Z,98429.09
2023-01-13T14:17:25.499Z,98443.06
2023-01-13T14:20:07.824Z,98448.28
2023-01-13T14:22:34.573Z,98451.78
2023-01-13T14:25:01.983Z,98443.09
2023-01-13T14:27:30.490Z,98440.78
2023-01-13T14:30:00.380Z,98464.53
2023-01-13T14:32:33.552Z,98481.41
2023-01-13T14:35:00.302Z,98456.47
2023-01-13T14:37:32.956Z,98488.03
2023-01-13T14:39:59.458Z,98480.09
2023-01-13T14:42:28.183Z,98468.88
2023-01-13T14:44:56.253Z,98472.25
2023-01-13T14:47:28.925Z,98489.47
2023-01-13T14:50:10.713Z,98497.72
2023-01-13T14:52:50.464Z,98492.56
2023-01-13T14:55:33.648Z,98502.34
2023-01-13T14:58:22.086Z,98504.88
2023-01-13T15:00:52.953Z,98509.66
2023-01-13T15:03:21.267Z,98501.31
2023-01-13T15:05:50.175Z,98490.47
2023-01-13T15:08:17.293Z,98501.28
2023-01-13T15:10:59.583Z,98515.81
2023-01-13T15:13:29.196Z,98503.97
2023-01-13T15:15:57.600Z,98506.06
2023-01-13T15:18:24.654Z,98503.38
2023-01-13T15:20:51.180Z,98479.16
2023-01-13T15:23:19.343Z,98517.84
2023-01-13T15:25:47.483Z,98510.94
2023-01-13T15:28:25.224Z,98503.56
2023-01-13T15:30:53.952Z,98505.22
2023-01-13T15:33:22.222Z,98489.84
2023-01-13T15:35:52.146Z,98482.75
2023-01-13T15:38:21.268Z,98499.97
2023-01-13T15:40:49.552Z,98501.72
2023-01-13T15:43:40.289Z,98476.59
2023-01-13T15:46:32.110Z,98499.13
2023-01-13T15:49:03.458Z,98507.16
2023-01-13T15:51:32.653Z,98502.44
2023-01-13T15:54:02.437Z,98509.06
2023-01-13T15:56:29.033Z,98528.38
2023-01-13T15:58:55.972Z,98519.19
2023-01-13T16:01:23.173Z,98547.31
2023-01-13T16:03:50.045Z,98545.06
2023-01-13T16:06:19.596Z,98559.03
2023-01-13T16:08:46.600Z,98562.75
2023-01-13T16:11:13.317Z,98568.69
2023-01-13T16:13:40.171Z,98574.81
2023-01-13T16:16:15.260Z,98577.47
2023-01-13T16:18:41.785Z,98556.44
2023-01-13T16:21:12.034Z,98602.13
2023-01-13T16:23:38.620Z,98594.41
2023-01-13T16:26:07.151Z,98593.34
2023-01-13T16:28:35.768Z,98610.25
2023-01-13T16:31:21.463Z,98624.13
2023-01-13T16:33:48.454Z,98643.56
2023-01-13T16:36:20.071Z,98645.28
2023-01-13T16:38:49.847Z,98650.97
2023-01-13T16:41:16.442Z,98675.19
2023-01-13T16:43:43.111Z,98660.59
2023-01-13T16:46:18.840Z,98684.38
2023-01-13T16:48:46.018Z,98694.13
2023-01-13T16:51:12.546Z,98683.97
2023-01-13T16:53:39.130Z,98680.34
2023-01-13T16:56:30.649Z,98681.63
2023-01-13T16:59:01.214Z,98683.22
2023-01-13T17:01:30.642Z,98676.78
2023-01-13T17:03:58.196Z,98666.81
2023-01-13T17:06:41.514Z,98677.81
2023-01-13T17:09:13.073Z,98681.09
2023-01-13T17:11:40.586Z,98668.94
2023-01-13T17:14:19.208Z,98668.94
2023-01-13T17:16:47.009Z,98662.25
2023-01-13T17:19:14.011Z,98666.59
2023-01-13T17:21:41.142Z,98656.94
2023-01-13T17:24:09.565Z,98663.63
2023-01-13T17:26:43.886Z,98663.75
2023-01-13T17:29:14.102Z,98663.41
2023-01-13T17:31:41.076Z,98676.72
2023-01-13T17:34:08.125Z,98669.81
2023-01-13T17:36:34.636Z,98672.72
2023-01-13T17:39:01.153Z,98674.94
2023-01-13T17:41:27.742Z,98623.72
2023-01-13T17:43:54.296Z,98661.91
2023-01-13T17:46:23.015Z,98682.13
2023-01-13T17:48:53.611Z,98662.09
2023-01-13T17:51:22.548Z,98687.50
2023-01-13T17:53:49.313Z,98687.19
2023-01-13T17:56:17.019Z,98671.47
2023-01-13T17:58:45.395Z,98651.56
2023-01-13T18:01:20.115Z,98687.84
2023-01-13T18:04:06.803Z,98702.75
2023-01-13T18:06:51.838Z,98716.28
2023-01-13T18:09:38.646Z,98701.63
2023-01-13T18:12:25.471Z,98701.91
2023-01-13T18:15:12.262Z,98714.31
2023-01-13T18:17:59.091Z,98706.28
2023-01-13T18:21:04.577Z,98714.00
2023-01-13T18:24:10.387Z,98729.97
2023-01-13T18:27:16.134Z,98735.78
2023-01-13T18:30:03.711Z,98749.66
2023-01-13T18:32:50.592Z,98732.72
2023-01-13T18:35:40.526Z,98743.94
2023-01-13T18:38:27.373Z,98745.50
2023-01-13T18:41:32.991Z,98758.84
2023-01-13T18:44:19.919Z,98747.63
2023-01-13T18:47:06.852Z,98777.13
2023-01-13T18:49:53.658Z,98773.34
2023-01-13T18:52:41.249Z,98787.13
2023-01-13T18:55:28.607Z,98774.28
2023-01-13T18:58:15.631Z,98780.00
2023-01-13T19:01:05.147Z,98792.16
2023-01-13T19:03:56.740Z,98797.47
2023-01-13T19:06:51.431Z,98799.34
2023-01-13T19:09:39.385Z,98812.00
2023-01-13T19:12:27.515Z,98806.47
2023-01-13T19:15:14.421Z,98804.75
2023-01-13T19:18:01.252Z,98820.16
2023-01-13T19:20:48.107Z,98815.03
2023-01-13T19:23:35.112Z,98813.97
2023-01-13T19:26:22.478Z,98826.25
2023-01-13T19:29:09.291Z,98813.09
2023-01-13T19:31:56.095Z,98834.94
2023-01-13T19:34:44.165Z,98826.34
2023-01-13T19:37:33.550Z,98836.03
2023-01-13T19:40:20.387Z,98822.00
2023-01-13T19:43:26.203Z,98821.91
2023-01-13T19:46:13.779Z,98838.88
2023-01-13T19:49:00.773Z,98831.03
2023-01-13T19:51:47.599Z,98842.03
2023-01-13T19:54:34.687Z,98823.81
2023-01-13T19:57:22.393Z,98826.16
2023-01-13T20:00:10.654Z,98831.97
2023-01-13T20:03:03.413Z,98838.63
2023-01-13T20:05:51.511Z,98839.19
2023-01-13T20:08:38.334Z,98825.94
2023-01-13T20:11:31.092Z,98830.47
2023-01-13T20:14:18.837Z,98845.72
2023-01-13T20:17:06.014Z,98845.28
2023-01-13T20:19:53.113Z,98837.06
2023-01-13T20:22:40.496Z,98859.41
2023-01-13T20:25:31.637Z,98845.09
2023-01-13T20:28:19.889Z,98858.63
2023-01-13T20:31:11.398Z,98865.66
2023-01-13T20:33:58.393Z,98864.91
2023-01-13T20:36:46.045Z,98872.69
2023-01-13T20:39:33.948Z,98872.69
2023-01-13T20:42:29.660Z,98870.56
2023-01-13T20:45:20.473Z,98871.94
2023-01-13T20:48:07.321Z,98885.06
